Holton, IN (47023)

2:58 PM EDT on August 30, 2014 (GMT -0400)
North Vernon - East | Change Station
CLOSE
Current Station
Personal Weather Station
Location: North Vernon, IN
Elevation: 761 ft
Nearby Weather Stations

Elev 761 ft 39.01 °N, 85.59 °W | Updated 12 minutes ago

Partly Cloudy
Partly Cloudy
82.9 °F
Feels Like 90 °F
N
0.0
Wind Variable Wind from West

Today
High -- | Low -- °F
--% Chance of Precip.
Yesterday
High -- | Low -- °F
Precip. -- in
7:08 AM 8:15 PM
Waxing Crescent, 24% visible
Pressure 30.04 in
Visibility 10.0 miles
Clouds Scattered Clouds 1300 ft
Mostly Cloudy 12000 ft
Heat Index 90 °F
Dew Point 74 °F
Humidity 76%
Rainfall 0.02 in
Snow Depth Not available.
UV 5 out of 12
Pollen 10.80 out of 12
Air Quality Not available.
Flu Activity Not available.
METAR KBAK 301847Z 20007KT 10SM SCT013 BKN120 25/23 A3004

More Conditions Fewer Conditions

Pressure 30.04 in
Visibility 10.0 miles
Clouds Scattered Clouds 1300 ft
Mostly Cloudy 12000 ft
Heat Index 90 °F
Dew Point 74 °F
Humidity 76%
Rainfall 0.02 in
Snow Depth Not available.
UV 5 out of 12
Pollen 10.80 out of 12
Air Quality Not available.
Flu Activity Not available.
METAR KBAK 301847Z 20007KT 10SM SCT013 BKN120 25/23 A3004

More Conditions Fewer Conditions

10-Day Weather Forecast

Almanac

Astronomy

Aug. 30, 2014 Rise Set
Actual Time 7:08 AM EDT 8:15 PM EDT
Civil Twilight 6:41 AM EDT 8:42 PM EDT
Nautical Twilight 6:08 AM EDT 9:15 PM EDT
Astronomical Twilight 5:34 AM EDT 9:49 PM EDT
Moon 11:52 AM EDT 10:51 PM EDT
Length of Visible Light 14h 01m
Length of Day
13h 06m
Tomorrow will be 2m 26s shorter.
Waxing Crescent, 24% of the Moon is Illuminated
Today
Waxing Crescent
Sep 2
First Quarter
Sep 8
Full
Sep 15
Last Quarter
Sep 24
New

Today's Extremes

State Highs State Lows

Community

WunderPhotos

Upload Photos

1,748,593 photos uploaded!

WunderBlogs® & News

Nearby

Snow Depth

Station Depth Elevation
No new snow has been reported.

Earthquake Activity

City Distance Mag. Time & Date
No recent earthquake activity has been reported nearby.
Minimum magnitude displayed is 2.5.

Coastal Water Temperatures

Place Temperature
No Stations Reporting

Nearby Weather Stations